createdAt,value
2019-05-07T00:00:12.676Z,3.87
2019-05-07T00:04:58.478Z,6.97
2019-05-07T00:09:44.143Z,5.20
2019-05-07T00:14:31.938Z,5.70
2019-05-07T00:19:17.290Z,10.60
2019-05-07T00:24:03.071Z,4.90
2019-05-07T00:28:48.753Z,3.93
2019-05-07T00:33:35.802Z,4.17
2019-05-07T00:38:23.056Z,5.40
2019-05-07T00:43:13.158Z,7.30
2019-05-07T00:47:58.978Z,4.00
2019-05-07T00:52:44.696Z,4.57
2019-05-07T00:57:32.256Z,6.50
2019-05-07T01:02:17.810Z,8.27
2019-05-07T01:07:03.582Z,7.33
2019-05-07T01:11:49.310Z,6.53
2019-05-07T01:16:35.025Z,6.37
2019-05-07T01:21:22.737Z,6.03
2019-05-07T01:26:08.133Z,6.40
2019-05-07T01:30:53.919Z,8.73
2019-05-07T01:36:04.552Z,6.33
2019-05-07T01:40:52.070Z,6.53
2019-05-07T01:45:46.461Z,5.50
2019-05-07T01:50:26.985Z,5.50
2019-05-07T01:55:13.029Z,6.37
2019-05-07T01:59:58.862Z,6.07
2019-05-07T02:04:52.192Z,5.53
2019-05-07T02:09:48.489Z,4.77
2019-05-07T02:14:34.203Z,7.73
2019-05-07T02:19:21.942Z,4.63
2019-05-07T02:24:07.268Z,6.90
2019-05-07T02:28:52.935Z,12.40
2019-05-07T02:33:38.648Z,10.33
2019-05-07T02:38:58.470Z,7.03
2019-05-07T02:43:44.146Z,7.70
2019-05-07T02:48:33.935Z,7.50
2019-05-07T02:53:28.355Z,4.40
2019-05-07T02:58:14.104Z,5.77
2019-05-07T03:02:59.835Z,4.73
2019-05-07T03:07:45.532Z,5.47
2019-05-07T03:12:33.479Z,3.90
2019-05-07T03:17:18.763Z,5.13
2019-05-07T03:22:04.604Z,4.77
2019-05-07T03:26:53.399Z,5.17
2019-05-07T03:31:57.315Z,7.53
2019-05-07T03:36:48.362Z,4.83
2019-05-07T03:41:33.548Z,8.47
2019-05-07T03:46:19.376Z,8.27
2019-05-07T03:51:05.199Z,5.87
2019-05-07T03:55:53.755Z,9.70
2019-05-07T04:00:38.299Z,7.60
2019-05-07T04:05:24.030Z,7.30
2019-05-07T04:10:14.064Z,7.23
2019-05-07T04:14:57.463Z,6.63
2019-05-07T04:19:44.127Z,12.53
2019-05-07T04:24:46.272Z,12.23
2019-05-07T04:29:34.849Z,9.47
2019-05-07T04:34:24.832Z,13.43
2019-05-07T04:39:12.982Z,11.20
2019-05-07T04:43:58.100Z,9.00
2019-05-07T04:48:44.259Z,7.17
2019-05-07T04:53:32.762Z,6.63
2019-05-07T04:58:18.163Z,11.13
2019-05-07T05:03:12.822Z,10.80
2019-05-07T05:07:58.653Z,10.73
2019-05-07T05:12:45.154Z,10.70
2019-05-07T05:17:32.015Z,13.10
2019-05-07T05:22:43.185Z,9.63
2019-05-07T05:27:30.619Z,12.20
2019-05-07T05:32:16.488Z,7.90
2019-05-07T05:37:02.548Z,7.37
2019-05-07T05:41:51.810Z,10.37
2019-05-07T05:46:37.665Z,13.17
2019-05-07T05:52:02.028Z,6.77
2019-05-07T05:56:53.018Z,8.70
2019-05-07T06:02:06.560Z,11.40
2019-05-07T06:07:13.938Z,10.53
2019-05-07T06:12:15.870Z,10.23
2019-05-07T06:17:17.387Z,8.17
2019-05-07T06:22:28.174Z,6.83
2019-05-07T06:27:13.787Z,5.00
2019-05-07T06:32:02.818Z,4.77
2019-05-07T06:36:48.533Z,4.87
2019-05-07T06:41:56.000Z,4.63
2019-05-07T06:46:41.979Z,7.90
2019-05-07T06:51:27.698Z,2.27
2019-05-07T06:56:13.524Z,2.77
2019-05-07T07:01:24.060Z,3.70
2019-05-07T07:06:23.624Z,3.43
2019-05-07T07:11:22.499Z,3.50
2019-05-07T07:16:08.301Z,3.30
2019-05-07T07:20:54.000Z,2.73
2019-05-07T07:25:39.653Z,3.50
2019-05-07T07:30:47.254Z,2.40
2019-05-07T07:35:33.172Z,2.87
2019-05-07T07:40:43.123Z,2.80
2019-05-07T07:45:28.864Z,2.80
2019-05-07T07:50:15.214Z,3.50
2019-05-07T07:55:02.199Z,3.43
2019-05-07T07:59:54.320Z,2.37
2019-05-07T08:04:42.470Z,3.10
2019-05-07T08:09:27.350Z,2.77
2019-05-07T08:14:13.143Z,3.50
2019-05-07T08:18:58.948Z,4.37
2019-05-07T08:23:44.735Z,4.73
2019-05-07T08:28:31.936Z,3.77
2019-05-07T08:33:25.482Z,3.57
2019-05-07T08:38:12.780Z,5.10
2019-05-07T08:42:59.176Z,3.07
2019-05-07T08:47:52.560Z,3.43
2019-05-07T08:52:37.889Z,3.27
2019-05-07T08:57:24.186Z,2.97
2019-05-07T09:02:12.356Z,3.53
2019-05-07T09:06:58.171Z,3.60
2019-05-07T09:11:44.176Z,4.17
2019-05-07T09:16:31.901Z,3.87
2019-05-07T09:21:17.774Z,4.87
2019-05-07T09:26:03.775Z,3.63
2019-05-07T09:30:55.158Z,4.53
2019-05-07T09:35:49.440Z,3.60
2019-05-07T09:40:35.376Z,4.63
2019-05-07T09:45:22.499Z,5.13
2019-05-07T09:50:09.079Z,3.60
2019-05-07T09:54:55.090Z,4.27
2019-05-07T09:59:42.622Z,3.53
2019-05-07T10:04:28.722Z,2.83
2019-05-07T10:09:15.119Z,5.77
2019-05-07T10:14:07.386Z,3.67
2019-05-07T10:18:53.274Z,3.80
2019-05-07T10:23:39.184Z,4.43
2019-05-07T10:28:25.502Z,4.77
2019-05-07T10:33:12.317Z,3.30
2019-05-07T10:37:58.292Z,4.00
2019-05-07T10:42:44.238Z,9.73
2019-05-07T10:47:44.313Z,9.53
2019-05-07T10:52:31.897Z,6.13
2019-05-07T10:57:17.734Z,9.07
2019-05-07T11:02:09.441Z,5.07
2019-05-07T11:06:55.218Z,3.60
2019-05-07T11:11:42.341Z,4.77
2019-05-07T11:16:32.482Z,3.90
2019-05-07T11:21:30.278Z,4.67
2019-05-07T11:26:16.317Z,5.47
2019-05-07T11:31:02.359Z,5.93
2019-05-07T11:35:48.118Z,5.43
2019-05-07T11:40:34.802Z,4.40
2019-05-07T11:45:26.813Z,3.67
2019-05-07T11:50:28.312Z,4.77
2019-05-07T11:55:14.067Z,6.28
2019-05-07T12:00:02.747Z,4.47
2019-05-07T12:04:48.594Z,5.35
2019-05-07T12:09:34.503Z,3.75
2019-05-07T12:14:28.874Z,5.00
2019-05-07T12:19:08.425Z,3.95
2019-05-07T12:23:58.694Z,3.87
2019-05-07T12:28:47.517Z,3.95
2019-05-07T12:34:02.596Z,4.83
2019-05-07T12:38:48.430Z,5.05
2019-05-07T12:43:34.243Z,5.00
2019-05-07T12:48:22.894Z,5.12
2019-05-07T12:53:23.261Z,5.33
2019-05-07T12:58:09.178Z,3.75
2019-05-07T13:03:18.398Z,3.67
2019-05-07T13:08:04.746Z,5.67
2019-05-07T13:12:52.586Z,2.92
2019-05-07T13:17:38.620Z,4.12
2019-05-07T13:22:24.877Z,4.47
2019-05-07T13:27:10.655Z,8.98
2019-05-07T13:31:57.867Z,4.28
2019-05-07T13:36:48.168Z,13.45
2019-05-07T13:41:53.598Z,7.37
2019-05-07T13:46:44.770Z,7.85
2019-05-07T13:51:31.565Z,5.47
2019-05-07T13:56:19.263Z,6.92
2019-05-07T14:01:16.215Z,4.22
2019-05-07T14:06:04.588Z,9.80
2019-05-07T14:10:51.605Z,5.75
2019-05-07T14:15:42.937Z,5.25
2019-05-07T14:20:28.859Z,4.57
2019-05-07T14:25:14.889Z,5.85
2019-05-07T14:30:21.709Z,6.00
2019-05-07T14:35:27.108Z,7.07
2019-05-07T14:40:13.135Z,4.17
2019-05-07T14:44:59.214Z,5.72
2019-05-07T14:49:45.638Z,5.42
2019-05-07T14:54:32.271Z,6.65
2019-05-07T14:59:18.502Z,5.25
2019-05-07T15:04:04.760Z,3.87
2019-05-07T15:08:52.199Z,4.25
2019-05-07T15:13:38.462Z,5.90
2019-05-07T15:18:46.782Z,5.35
2019-05-07T15:23:35.796Z,9.30
2019-05-07T15:28:22.767Z,5.97
2019-05-07T15:33:09.270Z,4.70
2019-05-07T15:37:56.226Z,3.83
2019-05-07T15:42:42.303Z,5.15
2019-05-07T15:47:34.099Z,3.87
2019-05-07T15:52:41.905Z,3.83
2019-05-07T15:57:29.600Z,6.47
2019-05-07T16:02:32.032Z,4.58
2019-05-07T16:07:17.291Z,4.22
2019-05-07T16:12:03.165Z,5.00
2019-05-07T16:16:49.098Z,4.20
2019-05-07T16:21:35.018Z,4.47
2019-05-07T16:26:21.960Z,5.50
2019-05-07T16:31:08.193Z,4.20
2019-05-07T16:35:54.277Z,6.03
2019-05-07T16:40:40.304Z,4.57
2019-05-07T16:45:26.341Z,5.13
2019-05-07T16:50:13.621Z,5.63
2019-05-07T16:54:59.470Z,4.83
2019-05-07T16:59:45.419Z,7.57
2019-05-07T17:04:31.959Z,6.53
2019-05-07T17:09:17.971Z,9.47
2019-05-07T17:14:04.187Z,7.03
2019-05-07T17:19:11.671Z,6.50
2019-05-07T17:23:57.286Z,7.90
2019-05-07T17:28:43.367Z,6.47
2019-05-07T17:33:29.289Z,6.33
2019-05-07T17:38:15.246Z,11.67
2019-05-07T17:43:02.989Z,11.17
2019-05-07T17:47:49.040Z,7.60
2019-05-07T17:52:34.891Z,9.67
2019-05-07T17:57:22.763Z,9.50
2019-05-07T18:02:32.358Z,9.27
2019-05-07T18:07:18.382Z,12.07
2019-05-07T18:12:04.716Z,8.83
2019-05-07T18:17:09.544Z,10.57
2019-05-07T18:21:55.705Z,10.37
2019-05-07T18:26:42.400Z,14.73
2019-05-07T18:31:53.279Z,11.93
2019-05-07T18:36:39.168Z,10.73
2019-05-07T18:41:25.540Z,11.83
2019-05-07T18:46:12.909Z,9.03
2019-05-07T18:50:59.572Z,46.03
2019-05-07T18:55:45.740Z,26.87
2019-05-07T19:00:35.883Z,11.13
2019-05-07T19:05:22.317Z,10.90
2019-05-07T19:10:08.643Z,7.37
2019-05-07T19:14:54.847Z,5.50
2019-05-07T19:19:41.890Z,5.00
2019-05-07T19:24:43.771Z,6.93
2019-05-07T19:29:16.548Z,8.13
2019-05-07T19:34:03.082Z,5.67
2019-05-07T19:38:49.023Z,6.10
2019-05-07T19:43:36.314Z,5.07
2019-05-07T19:48:23.221Z,6.47
2019-05-07T19:53:09.221Z,5.07
2019-05-07T19:57:59.863Z,3.93
2019-05-07T20:02:48.279Z,5.00
2019-05-07T20:07:34.422Z,9.80
2019-05-07T20:12:20.247Z,8.90
2019-05-07T20:17:06.658Z,8.97
2019-05-07T20:21:52.537Z,7.30
2019-05-07T20:26:38.467Z,9.50
2019-05-07T20:31:24.216Z,9.77
2019-05-07T20:36:10.503Z,7.07
2019-05-07T20:40:56.353Z,9.47
2019-05-07T20:45:42.636Z,9.73
2019-05-07T20:50:28.702Z,8.47
2019-05-07T20:55:48.768Z,7.80
2019-05-07T21:00:34.762Z,10.13
2019-05-07T21:05:22.662Z,6.57
2019-05-07T21:10:08.163Z,6.23
2019-05-07T21:14:54.311Z,5.40
2019-05-07T21:19:42.611Z,5.33
2019-05-07T21:24:27.945Z,5.40
2019-05-07T21:29:14.054Z,4.90
2019-05-07T21:33:59.875Z,9.97
2019-05-07T21:38:45.632Z,11.87
2019-05-07T21:43:32.638Z,11.43
2019-05-07T21:48:18.542Z,13.37
2019-05-07T21:53:09.070Z,9.53
2019-05-07T21:58:12.534Z,7.53
2019-05-07T22:03:01.870Z,9.10
2019-05-07T22:07:47.430Z,9.90
2019-05-07T22:12:33.145Z,10.00
2019-05-07T22:17:18.867Z,7.93
2019-05-07T22:22:04.813Z,10.13
2019-05-07T22:26:50.525Z,9.13
2019-05-07T22:31:55.168Z,8.37
2019-05-07T22:36:43.043Z,8.43
2019-05-07T22:41:28.490Z,6.40
2019-05-07T22:46:14.375Z,7.37
2019-05-07T22:51:00.079Z,8.83
2019-05-07T22:55:46.398Z,8.60
2019-05-07T23:00:46.138Z,7.43
2019-05-07T23:05:42.279Z,7.40
2019-05-07T23:10:28.102Z,7.00
2019-05-07T23:15:15.164Z,9.40
2019-05-07T23:20:00.878Z,11.00
2019-05-07T23:24:46.649Z,10.57
2019-05-07T23:29:33.004Z,10.43
2019-05-07T23:34:18.908Z,7.93
2019-05-07T23:39:06.590Z,12.30
2019-05-07T23:44:12.613Z,12.97
2019-05-07T23:48:58.549Z,9.77
2019-05-07T23:53:44.429Z,10.20
2019-05-07T23:58:32.533Z,9.30
